createdAt,value
2019-02-04T00:00:45.016Z,38.03
2019-02-04T00:03:11.382Z,37.95
2019-02-04T00:05:37.908Z,38.00
2019-02-04T00:08:04.263Z,38.02
2019-02-04T00:10:30.608Z,37.99
2019-02-04T00:12:56.960Z,38.06
2019-02-04T00:15:23.297Z,38.01
2019-02-04T00:17:49.664Z,38.06
2019-02-04T00:20:16.048Z,38.09
2019-02-04T00:22:42.527Z,38.11
2019-02-04T00:25:08.958Z,38.08
2019-02-04T00:27:35.514Z,38.08
2019-02-04T00:30:01.860Z,38.21
2019-02-04T00:32:28.231Z,38.12
2019-02-04T00:34:54.706Z,38.13
2019-02-04T00:37:21.063Z,38.20
2019-02-04T00:39:47.399Z,38.14
2019-02-04T00:42:13.757Z,38.04
2019-02-04T00:44:40.094Z,38.14
2019-02-04T00:47:06.448Z,38.04
2019-02-04T00:49:32.805Z,38.18
2019-02-04T00:51:59.173Z,38.15
2019-02-04T00:54:25.582Z,38.13
2019-02-04T00:56:51.950Z,38.11
2019-02-04T00:59:18.313Z,38.11
2019-02-04T01:01:44.656Z,38.14
2019-02-04T01:04:11.002Z,38.08
2019-02-04T01:06:37.374Z,38.20
2019-02-04T01:09:03.830Z,38.18
2019-02-04T01:11:30.238Z,38.05
2019-02-04T01:13:56.534Z,37.82
2019-02-04T01:16:22.900Z,37.60
2019-02-04T01:18:49.262Z,37.62
2019-02-04T01:21:15.588Z,37.41
2019-02-04T01:23:41.980Z,37.40
2019-02-04T01:26:08.318Z,37.27
2019-02-04T01:28:34.670Z,37.40
2019-02-04T01:31:01.002Z,37.26
2019-02-04T01:33:27.361Z,37.27
2019-02-04T01:35:53.711Z,37.17
2019-02-04T01:38:20.042Z,37.16
2019-02-04T01:40:46.427Z,37.08
2019-02-04T01:43:12.768Z,36.95
2019-02-04T01:45:39.097Z,37.14
2019-02-04T01:48:05.448Z,36.98
2019-02-04T01:50:31.791Z,37.02
2019-02-04T01:52:58.113Z,36.90
2019-02-04T01:55:24.453Z,36.87
2019-02-04T01:57:50.794Z,36.87
2019-02-04T02:00:17.135Z,36.78
2019-02-04T02:02:43.601Z,36.73
2019-02-04T02:05:09.996Z,36.76
2019-02-04T02:07:36.328Z,36.84
2019-02-04T02:10:02.658Z,36.68
2019-02-04T02:12:28.998Z,36.56
2019-02-04T02:14:55.382Z,36.52
2019-02-04T02:17:26.407Z,36.33
2019-02-04T02:19:48.069Z,36.23
2019-02-04T02:22:14.448Z,36.16
2019-02-04T02:24:40.919Z,36.12
2019-02-04T02:27:07.190Z,36.07
2019-02-04T02:29:33.521Z,36.11
2019-02-04T02:31:59.917Z,36.05
2019-02-04T02:34:26.239Z,35.99
2019-02-04T02:36:52.583Z,35.92
2019-02-04T02:39:18.963Z,35.91
2019-02-04T02:41:45.292Z,35.95
2019-02-04T02:44:11.704Z,35.88
2019-02-04T02:46:37.976Z,35.79
2019-02-04T02:49:04.321Z,35.77
2019-02-04T02:51:30.645Z,35.77
2019-02-04T02:53:56.975Z,35.74
2019-02-04T02:56:23.315Z,35.75
2019-02-04T02:58:49.664Z,35.67
2019-02-04T03:01:16.010Z,35.63
2019-02-04T03:03:42.344Z,35.63
2019-02-04T03:06:08.737Z,35.58
2019-02-04T03:08:35.071Z,35.55
2019-02-04T03:11:01.417Z,35.60
2019-02-04T03:13:27.755Z,35.59
2019-02-04T03:15:54.196Z,35.56
2019-02-04T03:18:20.542Z,35.57
2019-02-04T03:20:46.862Z,35.60
2019-02-04T03:23:13.226Z,35.54
2019-02-04T03:25:39.554Z,35.43
2019-02-04T03:28:06.036Z,35.47
2019-02-04T03:30:32.364Z,35.41
2019-02-04T03:32:58.713Z,35.42
2019-02-04T03:35:25.021Z,35.42
2019-02-04T03:37:52.314Z,35.31
2019-02-04T03:40:17.849Z,35.29
2019-02-04T03:42:44.176Z,35.25
2019-02-04T03:45:10.610Z,35.26
2019-02-04T03:47:36.940Z,35.25
2019-02-04T03:50:03.258Z,35.26
2019-02-04T03:52:29.590Z,35.23
2019-02-04T03:54:55.929Z,35.36
2019-02-04T03:57:22.271Z,35.27
2019-02-04T03:59:48.645Z,35.33
2019-02-04T04:02:15.000Z,35.27
2019-02-04T04:04:41.335Z,35.22
2019-02-04T04:07:07.667Z,35.04
2019-02-04T04:09:34.068Z,35.00
2019-02-04T04:12:00.323Z,34.91
2019-02-04T04:14:26.647Z,34.93
2019-02-04T04:16:53.049Z,34.92
2019-02-04T04:19:19.364Z,34.76
2019-02-04T04:21:45.720Z,34.87
2019-02-04T04:24:12.104Z,35.05
2019-02-04T04:26:38.455Z,35.04
2019-02-04T04:29:04.850Z,35.15
2019-02-04T04:31:31.145Z,35.17
2019-02-04T04:33:57.472Z,34.97
2019-02-04T04:36:23.834Z,34.94
2019-02-04T04:38:50.138Z,34.85
2019-02-04T04:41:16.478Z,34.86
2019-02-04T04:43:42.832Z,34.86
2019-02-04T04:46:09.149Z,34.85
2019-02-04T04:48:35.477Z,34.70
2019-02-04T04:51:01.868Z,34.68
2019-02-04T04:53:28.255Z,34.77
2019-02-04T04:55:54.611Z,34.87
2019-02-04T04:58:20.946Z,35.02
2019-02-04T05:00:47.315Z,35.03
2019-02-04T05:03:13.665Z,34.99
2019-02-04T05:05:40.113Z,34.97
2019-02-04T05:08:06.527Z,34.86
2019-02-04T05:10:32.859Z,34.84
2019-02-04T05:12:59.187Z,34.77
2019-02-04T05:15:25.556Z,34.75
2019-02-04T05:17:52.705Z,34.75
2019-02-04T05:20:18.314Z,34.75
2019-02-04T05:22:44.658Z,34.76
2019-02-04T05:25:10.982Z,34.63
2019-02-04T05:27:37.335Z,34.60
2019-02-04T05:30:03.705Z,34.56
2019-02-04T05:32:30.043Z,34.50
2019-02-04T05:34:57.507Z,34.56
2019-02-04T05:37:22.731Z,34.49
2019-02-04T05:39:49.125Z,34.54
2019-02-04T05:42:15.513Z,34.52
2019-02-04T05:44:41.849Z,34.49
2019-02-04T05:47:08.353Z,34.39
2019-02-04T05:49:34.775Z,34.50
2019-02-04T05:52:01.104Z,34.38
2019-02-04T05:54:27.505Z,34.35
2019-02-04T05:56:53.894Z,34.46
2019-02-04T05:59:20.239Z,34.66
2019-02-04T06:01:46.577Z,34.45
2019-02-04T06:04:12.968Z,34.71
2019-02-04T06:06:39.362Z,34.61
2019-02-04T06:09:05.699Z,34.66
2019-02-04T06:11:32.082Z,34.67
2019-02-04T06:13:58.399Z,34.92
2019-02-04T06:16:24.743Z,34.84
2019-02-04T06:19:00.530Z,34.99
2019-02-04T06:21:17.420Z,34.59
2019-02-04T06:23:43.821Z,34.52
2019-02-04T06:26:10.192Z,34.62
2019-02-04T06:28:36.522Z,34.53
2019-02-04T06:31:02.924Z,34.51
2019-02-04T06:33:29.341Z,34.32
2019-02-04T06:35:55.670Z,34.43
2019-02-04T06:38:22.016Z,34.54
2019-02-04T06:40:48.386Z,34.89
2019-02-04T06:43:14.705Z,35.34
2019-02-04T06:45:41.057Z,34.86
2019-02-04T06:48:07.427Z,34.67
2019-02-04T06:50:33.800Z,34.76
2019-02-04T06:53:00.131Z,34.87
2019-02-04T06:55:26.461Z,34.14
2019-02-04T06:57:52.794Z,34.53
2019-02-04T07:00:19.129Z,34.12
2019-02-04T07:02:45.491Z,34.91
2019-02-04T07:05:11.805Z,34.47
2019-02-04T07:07:38.206Z,34.49
2019-02-04T07:10:04.579Z,34.33
2019-02-04T07:12:30.928Z,34.28
2019-02-04T07:14:57.248Z,34.26
2019-02-04T07:17:23.718Z,34.76
2019-02-04T07:19:50.113Z,34.60
2019-02-04T07:22:16.540Z,34.40
2019-02-04T07:24:43.252Z,34.24
2019-02-04T07:27:09.279Z,34.47
2019-02-04T07:29:35.710Z,34.39
2019-02-04T07:32:02.060Z,34.29
2019-02-04T07:34:28.464Z,34.16
2019-02-04T07:36:54.870Z,34.17
2019-02-04T07:39:21.194Z,33.88
2019-02-04T07:41:47.532Z,34.35
2019-02-04T07:44:13.900Z,34.24
2019-02-04T07:46:40.389Z,34.35
2019-02-04T07:49:07.991Z,33.98
2019-02-04T07:51:33.106Z,34.19
2019-02-04T07:53:59.497Z,34.81
2019-02-04T07:56:25.830Z,34.61
2019-02-04T07:58:52.171Z,34.37
2019-02-04T08:01:18.518Z,34.62
2019-02-04T08:03:44.868Z,34.69
2019-02-04T08:06:11.245Z,34.18
2019-02-04T08:08:37.585Z,34.49
2019-02-04T08:11:04.070Z,34.49
2019-02-04T08:13:30.404Z,34.54
2019-02-04T08:15:56.788Z,34.52
2019-02-04T08:18:23.813Z,34.21
2019-02-04T08:20:50.240Z,33.98
2019-02-04T08:23:16.569Z,33.87
2019-02-04T08:25:42.922Z,34.16
2019-02-04T08:28:09.432Z,33.92
2019-02-04T08:30:37.931Z,34.59
2019-02-04T08:33:03.283Z,34.16
2019-02-04T08:35:29.652Z,34.61
2019-02-04T08:37:56.008Z,34.26
2019-02-04T08:40:22.358Z,33.81
2019-02-04T08:42:48.701Z,34.37
2019-02-04T08:45:15.184Z,34.47
2019-02-04T08:47:41.611Z,34.04
2019-02-04T08:50:10.091Z,33.84
2019-02-04T08:52:36.560Z,33.96
2019-02-04T08:55:02.949Z,34.90
2019-02-04T08:57:29.313Z,34.73
2019-02-04T08:59:55.698Z,34.72
2019-02-04T09:02:22.149Z,34.28
2019-02-04T09:04:48.501Z,34.15
2019-02-04T09:07:14.845Z,33.93
2019-02-04T09:09:41.212Z,33.99
2019-02-04T09:12:07.872Z,34.23
2019-02-04T09:14:34.283Z,33.79
2019-02-04T09:17:00.672Z,33.81
2019-02-04T09:19:27.038Z,33.53
2019-02-04T09:21:53.376Z,33.73
2019-02-04T09:24:19.737Z,34.23
2019-02-04T09:26:46.075Z,33.91
2019-02-04T09:29:12.426Z,33.82
2019-02-04T09:31:38.788Z,33.85
2019-02-04T09:34:05.191Z,34.07
2019-02-04T09:36:31.665Z,33.85
2019-02-04T09:38:58.189Z,34.37
2019-02-04T09:41:24.547Z,33.71
2019-02-04T09:43:50.923Z,33.83
2019-02-04T09:46:17.306Z,33.78
2019-02-04T09:48:43.747Z,33.60
2019-02-04T09:51:10.147Z,33.50
2019-02-04T09:53:36.489Z,33.99
2019-02-04T09:56:02.880Z,33.69
2019-02-04T09:58:29.310Z,33.49
2019-02-04T10:00:55.672Z,33.61
2019-02-04T10:03:22.089Z,33.70
2019-02-04T10:05:48.444Z,33.57
2019-02-04T10:08:14.855Z,33.68
2019-02-04T10:10:41.284Z,33.56
2019-02-04T10:13:07.632Z,33.34
2019-02-04T10:15:34.152Z,33.33
2019-02-04T10:18:00.570Z,33.14
2019-02-04T10:20:34.127Z,33.09
2019-02-04T10:22:53.292Z,33.18
2019-02-04T10:25:19.660Z,33.06
2019-02-04T10:27:46.068Z,32.98
2019-02-04T10:30:12.430Z,32.97
2019-02-04T10:32:38.752Z,32.94
2019-02-04T10:35:16.406Z,32.90
2019-02-04T10:37:31.606Z,33.03
2019-02-04T10:39:57.915Z,33.00
2019-02-04T10:42:24.322Z,33.09
2019-02-04T10:44:50.828Z,32.97
2019-02-04T10:47:17.132Z,32.95
2019-02-04T10:49:43.446Z,32.77
2019-02-04T10:52:09.839Z,32.62
2019-02-04T10:54:36.210Z,32.65
2019-02-04T10:57:02.631Z,32.89
2019-02-04T10:59:29.902Z,32.56
2019-02-04T11:01:55.302Z,32.61
2019-02-04T11:04:21.677Z,32.51
2019-02-04T11:06:48.063Z,32.85
2019-02-04T11:09:14.480Z,32.56
2019-02-04T11:11:40.771Z,32.69
2019-02-04T11:14:07.101Z,32.71
2019-02-04T11:16:33.487Z,33.43
2019-02-04T11:18:59.885Z,33.56
2019-02-04T11:21:26.250Z,33.32
2019-02-04T11:23:52.750Z,33.19
2019-02-04T11:26:19.116Z,33.29
2019-02-04T11:28:45.497Z,33.22
2019-02-04T11:31:12.045Z,33.24
2019-02-04T11:33:38.415Z,33.80
2019-02-04T11:36:04.766Z,33.01
2019-02-04T11:38:31.208Z,33.05
2019-02-04T11:40:57.650Z,33.19
2019-02-04T11:43:24.037Z,33.28
2019-02-04T11:45:50.402Z,33.34
2019-02-04T11:48:16.794Z,32.99
2019-02-04T11:50:43.286Z,33.20
2019-02-04T11:53:09.700Z,33.13
2019-02-04T11:55:36.253Z,33.43
2019-02-04T11:58:02.617Z,33.22
2019-02-04T12:00:29.114Z,33.19
2019-02-04T12:02:55.507Z,34.26
2019-02-04T12:05:21.848Z,33.93
2019-02-04T12:07:48.280Z,33.93
2019-02-04T12:10:14.684Z,34.05
2019-02-04T12:12:41.047Z,34.11
2019-02-04T12:15:07.389Z,33.99
2019-02-04T12:17:33.752Z,34.00
2019-02-04T12:20:00.325Z,34.01
2019-02-04T12:22:26.542Z,34.03
2019-02-04T12:24:52.927Z,34.12
2019-02-04T12:27:19.362Z,34.06
2019-02-04T12:29:45.738Z,34.11
2019-02-04T12:32:12.090Z,34.29
2019-02-04T12:34:38.549Z,34.20
2019-02-04T12:37:05.126Z,34.15
2019-02-04T12:39:31.353Z,34.12
2019-02-04T12:41:57.719Z,34.48
2019-02-04T12:44:24.185Z,34.24
2019-02-04T12:46:52.683Z,34.81
2019-02-04T12:49:20.072Z,34.40
2019-02-04T12:51:45.511Z,34.72
2019-02-04T12:54:12.019Z,35.46
2019-02-04T12:56:38.390Z,35.20
2019-02-04T12:59:04.746Z,34.55
2019-02-04T13:01:31.155Z,35.33
2019-02-04T13:03:57.614Z,34.55
2019-02-04T13:06:23.962Z,34.89
2019-02-04T13:08:50.322Z,34.90
2019-02-04T13:11:16.654Z,34.98
2019-02-04T13:13:43.065Z,34.83
2019-02-04T13:16:09.473Z,34.75
2019-02-04T13:18:35.992Z,34.71
2019-02-04T13:21:02.361Z,34.88
2019-02-04T13:23:30.082Z,34.83
2019-02-04T13:25:56.439Z,34.83
2019-02-04T13:28:22.811Z,35.01
2019-02-04T13:30:49.160Z,34.78
2019-02-04T13:33:15.543Z,34.73
2019-02-04T13:35:41.907Z,34.87
2019-02-04T13:38:08.257Z,34.81
2019-02-04T13:40:34.618Z,34.90
2019-02-04T13:43:01.141Z,34.87
2019-02-04T13:45:27.571Z,34.93
2019-02-04T13:47:53.922Z,35.01
2019-02-04T13:50:20.331Z,34.90
2019-02-04T13:52:46.732Z,34.98
2019-02-04T13:55:13.196Z,34.84
2019-02-04T13:57:40.787Z,35.08
2019-02-04T14:00:05.886Z,35.23
2019-02-04T14:02:32.270Z,35.23
2019-02-04T14:04:58.737Z,35.01
2019-02-04T14:07:25.148Z,35.16
2019-02-04T14:09:51.557Z,35.21
2019-02-04T14:12:17.881Z,35.01
2019-02-04T14:14:44.541Z,35.05
2019-02-04T14:17:10.988Z,34.93
2019-02-04T14:19:37.384Z,34.98
2019-02-04T14:22:09.453Z,35.11
2019-02-04T14:24:30.126Z,35.16
2019-02-04T14:26:56.516Z,35.17
2019-02-04T14:29:22.923Z,35.13
2019-02-04T14:31:49.284Z,35.20
2019-02-04T14:34:15.706Z,35.23
2019-02-04T14:36:42.186Z,35.20
2019-02-04T14:39:08.513Z,35.24
2019-02-04T14:41:34.926Z,35.26
2019-02-04T14:44:01.438Z,35.38
2019-02-04T14:46:27.809Z,35.27
2019-02-04T14:48:54.183Z,35.12
2019-02-04T14:51:20.683Z,35.17
2019-02-04T14:53:46.977Z,35.12
2019-02-04T14:56:13.411Z,35.11
2019-02-04T14:58:39.844Z,35.24
2019-02-04T15:01:06.348Z,35.23
2019-02-04T15:03:32.746Z,35.16
2019-02-04T15:05:59.152Z,35.28
2019-02-04T15:08:33.000Z,35.34
2019-02-04T15:10:51.919Z,35.12
2019-02-04T15:13:18.460Z,35.12
2019-02-04T15:15:44.787Z,35.03
2019-02-04T15:18:11.070Z,35.09
2019-02-04T15:20:37.477Z,34.81
2019-02-04T15:23:03.877Z,35.09
2019-02-04T15:25:30.243Z,34.72
2019-02-04T15:27:56.571Z,35.04
2019-02-04T15:30:23.001Z,34.86
2019-02-04T15:32:49.364Z,34.68
2019-02-04T15:35:15.843Z,34.67
2019-02-04T15:37:42.215Z,34.69
2019-02-04T15:40:08.635Z,34.61
2019-02-04T15:42:34.956Z,34.73
2019-02-04T15:45:01.304Z,34.59
2019-02-04T15:47:27.684Z,34.59
2019-02-04T15:49:54.064Z,35.25
2019-02-04T15:52:20.425Z,34.90
2019-02-04T15:54:47.015Z,34.94
2019-02-04T15:57:13.372Z,34.87
2019-02-04T15:59:39.758Z,34.68
2019-02-04T16:02:06.126Z,34.79
2019-02-04T16:04:32.491Z,35.21
2019-02-04T16:06:58.834Z,34.83
2019-02-04T16:09:25.226Z,34.58
2019-02-04T16:11:53.561Z,34.58
2019-02-04T16:14:19.893Z,34.88
2019-02-04T16:16:46.177Z,34.70
2019-02-04T16:19:12.557Z,34.76
2019-02-04T16:21:39.029Z,34.80
2019-02-04T16:24:05.401Z,34.53
2019-02-04T16:26:31.817Z,35.30
2019-02-04T16:28:58.149Z,34.65
2019-02-04T16:31:24.499Z,34.61
2019-02-04T16:33:50.845Z,34.57
2019-02-04T16:36:17.202Z,34.57
2019-02-04T16:38:43.542Z,34.60
2019-02-04T16:41:09.919Z,34.49
2019-02-04T16:43:36.269Z,34.76
2019-02-04T16:46:02.661Z,34.64
2019-02-04T16:48:29.015Z,34.67
2019-02-04T16:51:10.561Z,34.52
2019-02-04T16:53:21.736Z,34.48
2019-02-04T16:55:48.131Z,34.60
2019-02-04T16:58:14.472Z,34.59
2019-02-04T17:00:40.815Z,34.51
2019-02-04T17:03:07.164Z,34.70
2019-02-04T17:05:33.498Z,34.58
2019-02-04T17:07:59.864Z,34.65
2019-02-04T17:10:26.179Z,34.60
2019-02-04T17:12:52.578Z,34.66
2019-02-04T17:15:19.082Z,34.64
2019-02-04T17:17:45.424Z,34.54
2019-02-04T17:20:11.799Z,34.48
2019-02-04T17:22:38.261Z,34.48
2019-02-04T17:25:04.500Z,34.55
2019-02-04T17:27:30.840Z,34.46
2019-02-04T17:29:57.230Z,34.43
2019-02-04T17:32:23.665Z,34.49
2019-02-04T17:34:50.018Z,34.50
2019-02-04T17:37:16.397Z,34.46
2019-02-04T17:39:42.679Z,34.62
2019-02-04T17:42:09.011Z,34.48
2019-02-04T17:44:35.415Z,34.38
2019-02-04T17:47:01.802Z,34.56
2019-02-04T17:49:28.151Z,34.44
2019-02-04T17:51:54.495Z,34.34
2019-02-04T17:54:20.825Z,34.29
2019-02-04T17:56:47.206Z,34.34
2019-02-04T17:59:13.515Z,34.30
2019-02-04T18:01:39.858Z,34.38
2019-02-04T18:04:06.248Z,34.35
2019-02-04T18:06:32.631Z,34.39
2019-02-04T18:08:58.910Z,34.42
2019-02-04T18:11:25.240Z,34.41
2019-02-04T18:13:51.564Z,34.38
2019-02-04T18:16:17.975Z,34.45
2019-02-04T18:18:44.334Z,34.53
2019-02-04T18:21:10.715Z,34.62
2019-02-04T18:23:45.547Z,34.61
2019-02-04T18:26:03.376Z,34.63
2019-02-04T18:28:29.747Z,34.64
2019-02-04T18:30:56.131Z,34.71
2019-02-04T18:33:22.463Z,34.85
2019-02-04T18:35:48.865Z,34.95
2019-02-04T18:38:15.207Z,35.00
2019-02-04T18:40:41.570Z,34.93
2019-02-04T18:43:07.944Z,34.97
2019-02-04T18:45:34.353Z,34.97
2019-02-04T18:48:00.604Z,35.01
2019-02-04T18:50:26.938Z,35.09
2019-02-04T18:52:53.279Z,35.10
2019-02-04T18:55:19.720Z,35.13
2019-02-04T18:57:46.059Z,35.02
2019-02-04T19:00:12.476Z,35.07
2019-02-04T19:02:38.823Z,35.12
2019-02-04T19:05:05.157Z,35.16
2019-02-04T19:07:31.537Z,35.18
2019-02-04T19:09:57.958Z,35.16
2019-02-04T19:12:24.271Z,35.10
2019-02-04T19:14:50.660Z,35.16
2019-02-04T19:17:16.990Z,35.19
2019-02-04T19:19:43.326Z,35.23
2019-02-04T19:22:09.665Z,35.22
2019-02-04T19:24:36.026Z,35.22
2019-02-04T19:27:02.455Z,35.18
2019-02-04T19:29:28.859Z,35.35
2019-02-04T19:31:55.240Z,35.33
2019-02-04T19:34:21.589Z,35.29
2019-02-04T19:36:47.927Z,35.28
2019-02-04T19:39:14.344Z,35.37
2019-02-04T19:41:40.708Z,35.35
2019-02-04T19:44:07.078Z,35.28
2019-02-04T19:46:33.344Z,35.32
2019-02-04T19:48:59.684Z,35.43
2019-02-04T19:51:26.015Z,35.35
2019-02-04T19:53:52.346Z,35.41
2019-02-04T19:56:18.716Z,35.38
2019-02-04T19:58:45.093Z,35.39
2019-02-04T20:01:11.401Z,35.42
2019-02-04T20:03:37.761Z,35.48
2019-02-04T20:06:04.094Z,35.35
2019-02-04T20:08:30.415Z,35.42
2019-02-04T20:10:56.784Z,35.35
2019-02-04T20:13:23.108Z,35.35
2019-02-04T20:15:49.445Z,35.50
2019-02-04T20:18:15.827Z,35.56
2019-02-04T20:20:42.656Z,35.54
2019-02-04T20:23:08.520Z,35.52
2019-02-04T20:25:34.853Z,35.50
2019-02-04T20:28:01.231Z,35.51
2019-02-04T20:30:27.609Z,35.54
2019-02-04T20:32:53.986Z,35.51
2019-02-04T20:35:20.307Z,35.57
2019-02-04T20:37:46.649Z,35.57
2019-02-04T20:40:12.985Z,35.56
2019-02-04T20:42:39.320Z,35.50
2019-02-04T20:45:05.670Z,35.54
2019-02-04T20:47:32.049Z,35.56
2019-02-04T20:49:58.377Z,35.58
2019-02-04T20:52:24.703Z,35.60
2019-02-04T20:54:51.041Z,35.65
2019-02-04T20:57:17.375Z,35.68
2019-02-04T20:59:43.732Z,35.50
2019-02-04T21:02:10.063Z,35.59
2019-02-04T21:04:36.465Z,35.59
2019-02-04T21:07:02.890Z,35.60
2019-02-04T21:09:29.230Z,35.62
2019-02-04T21:11:55.593Z,35.68
2019-02-04T21:14:21.916Z,35.52
2019-02-04T21:16:48.296Z,35.68
2019-02-04T21:19:14.631Z,35.63
2019-02-04T21:21:40.953Z,35.63
2019-02-04T21:24:07.318Z,35.66
2019-02-04T21:26:33.668Z,35.58
2019-02-04T21:29:00.002Z,35.59
2019-02-04T21:31:26.329Z,35.58
2019-02-04T21:33:52.663Z,35.60
2019-02-04T21:36:18.996Z,35.59
2019-02-04T21:38:45.327Z,35.59
2019-02-04T21:41:11.657Z,35.65
2019-02-04T21:43:38.042Z,35.58
2019-02-04T21:46:04.385Z,35.59
2019-02-04T21:48:30.711Z,35.59
2019-02-04T21:50:57.108Z,35.59
2019-02-04T21:53:23.511Z,35.47
2019-02-04T21:55:49.826Z,35.60
2019-02-04T21:58:16.159Z,35.54
2019-02-04T22:00:42.509Z,35.52
2019-02-04T22:03:08.833Z,35.66
2019-02-04T22:05:35.175Z,35.84
2019-02-04T22:08:01.523Z,35.91
2019-02-04T22:10:27.875Z,35.88
2019-02-04T22:12:54.228Z,35.91
2019-02-04T22:15:20.566Z,35.92
2019-02-04T22:17:46.897Z,35.88
2019-02-04T22:20:13.253Z,35.89
2019-02-04T22:22:39.597Z,36.05
2019-02-04T22:25:05.931Z,35.93
2019-02-04T22:27:32.286Z,35.93
2019-02-04T22:29:58.617Z,35.99
2019-02-04T22:32:25.006Z,35.90
2019-02-04T22:34:51.442Z,36.05
2019-02-04T22:37:17.788Z,36.05
2019-02-04T22:39:44.127Z,36.18
2019-02-04T22:42:10.485Z,36.14
2019-02-04T22:44:36.814Z,36.14
2019-02-04T22:47:03.155Z,36.08
2019-02-04T22:49:29.527Z,36.13
2019-02-04T22:51:55.812Z,36.21
2019-02-04T22:54:22.189Z,36.15
2019-02-04T22:56:48.653Z,36.17
2019-02-04T22:59:14.974Z,36.23
2019-02-04T23:01:41.307Z,36.18
2019-02-04T23:04:07.665Z,36.10
2019-02-04T23:06:34.045Z,36.24
2019-02-04T23:09:00.375Z,36.31
2019-02-04T23:11:26.713Z,36.27
2019-02-04T23:13:53.034Z,36.27
2019-02-04T23:16:19.432Z,36.30
2019-02-04T23:18:45.764Z,36.18
2019-02-04T23:21:12.136Z,36.26
2019-02-04T23:23:38.497Z,36.28
2019-02-04T23:26:04.845Z,36.29
2019-02-04T23:28:31.118Z,36.34
2019-02-04T23:30:57.455Z,36.33
2019-02-04T23:33:33.928Z,36.30
2019-02-04T23:35:50.184Z,36.26
2019-02-04T23:38:16.516Z,36.31
2019-02-04T23:40:42.876Z,36.37
2019-02-04T23:43:09.208Z,36.34
2019-02-04T23:45:35.536Z,36.38
2019-02-04T23:48:01.863Z,36.32
2019-02-04T23:50:28.206Z,36.23
2019-02-04T23:52:54.565Z,36.27
2019-02-04T23:55:20.854Z,36.35
2019-02-04T23:57:47.188Z,36.28
